Norwalk, Connecticut
Current Conditions -  °F | °C
As of 7:52 AM on Tuesday 21 Oct 2014 (Local Time) from KBDR Reporting Station
Scattered Clouds Scattered Clouds  
Wind Chill: 52°   Ceiling: Unl
Heat Index: 52°   Visibility: 10mi
Dew Point: 48°   Wind: 6mph
Humidity: 86%   Direction: 20°NNE
Pressure: 29.92"   Gusts: NA
Location:  41.11°N, 73.41°W
Report Text: KBDR 211152Z 02005KT 10SM FEW050 SCT120 11/09 A2992 RMK AO2 SLP133 T01110089 10156 20106 53005
Loading
Personal Weather Stations






























Interactive Weather Map
Tropical Storm Tracking
New forecast layout! Learn more

10-Day Weather Forecast

Advertisements
Track Severe Weather on mobile